Three Rivers — WDH2225 — position and weather

sailwx.info

Track history (hours):
 
Tides and Currents Weather Stations Pressure Air Temp Water Temp Dewpoint Dewpoint Depression Visibility Wind Speed Wind Dir Waves Ship Positions

Three Rivers

Owner: Higman Barge Lines, Inc., Orange, TX. More information available from US FCC via Universal Licensing System and Coast Guard Vessel Documentation Center.

Last reported at 2018-Jun-20 03:15 UTC. Time now 2018-Jun-24 18:49 UTC.
Position N 29°33' W 090°24'.

Length 206 m; draft 2.7 m.

Type: . MMSI: 367595460.

Date/timePositionNaut miles runAvg speedWind from/ knotsBaromVisibWave heightAir tempDewpointWater temp
2018-Jun-20 03:15N 29°33' W 090°24'3 5.5
2018-Jun-20 02:44N 29°33' W 090°27'1 5.8
2018-Jun-20 02:30N 29°34' W 090°29'3 5.8
2018-Jun-20 02:00N 29°34' W 090°32'3 5.4
2018-Jun-20 01:31N 29°34' W 090°35'2 3.7
2018-Jun-20 01:00N 29°35' W 090°37'3 5.3
2018-Jun-20 00:30N 29°36' W 090°40'2 4.6
2018-Jun-20 00:01N 29°37' W 090°42'2 3.8
2018-Jun-19 23:30N 29°35' W 090°43'1 3.0
2018-Jun-19 23:00N 29°34' W 090°44'2 3.8
2018-Jun-19 22:30N 29°33' W 090°46'0 0.1
2018-Jun-19 22:00N 29°33' W 090°45'0 0.3
2018-Jun-19 21:30N 29°33' W 090°46'2 4.1
2018-Jun-19 21:00N 29°32' W 090°48'3 6.3
2018-Jun-19 20:29N 29°32' W 090°52'3 6.2
2018-Jun-19 20:00N 29°33' W 090°55'57 4.0
2018-Jun-19 05:31N 29°50' W 091°58'0 5.8
2018-Jun-19 05:29N 29°50' W 091°58'3 6.0
2018-Jun-19 05:00N 29°49' W 092°01'3 5.6
2018-Jun-19 04:30N 29°48' W 092°04'3 5.3
2018-Jun-19 04:00N 29°47' W 092°07'2 4.3
2018-Jun-19 03:30N 29°47' W 092°09'1 2.6
2018-Jun-19 03:00N 29°47' W 092°11'1 2.6
2018-Jun-19 02:30N 29°47' W 092°12'0 0.7
2018-Jun-19 02:00N 29°47' W 092°13'1 2.4
2018-Jun-19 01:30N 29°48' W 092°14'0 0.7
2018-Jun-19 01:00N 29°48' W 092°14'1 1.2
2018-Jun-19 00:31N 29°48' W 092°15'0 0.0
2018-Jun-19 00:01N 29°48' W 092°15'0 0.0
2018-Jun-18 23:30N 29°48' W 092°15'0 0.0
2018-Jun-18 23:00N 29°48' W 092°15'0 0.0
2018-Jun-18 22:30N 29°48' W 092°15'1 1.3
2018-Jun-18 22:00N 29°48' W 092°16'0 0.0
2018-Jun-18 21:30N 29°48' W 092°16'0 0.0
2018-Jun-18 21:00N 29°48' W 092°16'1 2.6
2018-Jun-18 20:30N 29°49' W 092°17'1 1.3
2018-Jun-18 20:00N 29°49' W 092°18'0 0.0
2018-Jun-18 19:30N 29°49' W 092°18'0 0.0
2018-Jun-18 19:01N 29°49' W 092°18'0 0.0
2018-Jun-18 18:30N 29°49' W 092°18'0 0.0
2018-Jun-18 18:00N 29°49' W 092°18'0 0.0
2018-Jun-18 17:30N 29°49' W 092°18'0 0.0
2018-Jun-18 17:01N 29°49' W 092°18'0 0.0
2018-Jun-18 16:29N 29°49' W 092°18'0 0.1
2018-Jun-18 16:00N 29°50' W 092°18'0 0.3
2018-Jun-18 15:30N 29°50' W 092°18'0 0.1
2018-Jun-18 15:00N 29°50' W 092°18'0 0.5
2018-Jun-18 14:30N 29°50' W 092°18'0 0.5
2018-Jun-18 14:01N 29°50' W 092°18'0 0.0
2018-Jun-18 13:30N 29°50' W 092°18'1 1.5
2018-Jun-18 12:59N 29°50' W 092°19'2 3.7
2018-Jun-18 12:30N 29°51' W 092°21'2 2.8
2018-Jun-18 11:53N 29°52' W 092°22'2 3.4
2018-Jun-18 11:23N 29°53' W 092°24'1 1.1
2018-Jun-18 10:21N 29°53' W 092°25'1 2.6
2018-Jun-18 09:58N 29°53' W 092°26'32 4.9
2018-Jun-18 03:24N 29°56' W 093°03'1 3.8
2018-Jun-18 03:00N 29°56' W 093°05'2 4.6
2018-Jun-18 02:30N 29°56' W 093°08'2 4.4
2018-Jun-18 02:00N 29°57' W 093°10'2 4.8
2018-Jun-18 01:30N 29°59' W 093°12'2 3.2
2018-Jun-18 01:01N 29°60' W 093°13'2 3.1
2018-Jun-18 00:30N 30°01' W 093°14'1 2.7
2018-Jun-18 00:00N 30°02' W 093°15'1 2.6
2018-Jun-17 23:30N 30°03' W 093°16'1 2.9
2018-Jun-17 23:00N 30°04' W 093°16'1 2.6
2018-Jun-17 22:31N 30°05' W 093°18'1 1.0
2018-Jun-17 22:00N 30°06' W 093°18'1 1.8
2018-Jun-17 21:30N 30°06' W 093°19'0 0.1
2018-Jun-17 21:00N 30°06' W 093°19'0 0.0
2018-Jun-17 20:31N 30°06' W 093°19'0 0.1
2018-Jun-17 20:01N 30°06' W 093°19'0 0.0
2018-Jun-17 19:30N 30°06' W 093°19'0 0.0
2018-Jun-17 19:01N 30°06' W 093°19'0 0.0
2018-Jun-17 18:30N 30°06' W 093°19'0 0.1
2018-Jun-17 18:00N 30°06' W 093°19'0 0.0
2018-Jun-17 17:30N 30°06' W 093°19'0 0.0
2018-Jun-17 17:00N 30°06' W 093°19'0 0.0
2018-Jun-17 16:30N 30°06' W 093°19'0 0.0
2018-Jun-17 16:00N 30°06' W 093°19'0 0.1
2018-Jun-17 15:30N 30°06' W 093°19'0 0.1
2018-Jun-17 15:00N 30°06' W 093°19'1 2.6
2018-Jun-17 14:30N 30°05' W 093°20'1 2.2
2018-Jun-17 14:01N 30°04' W 093°21'1 2.4
2018-Jun-17 13:30N 30°04' W 093°22'0 0.6
2018-Jun-17 13:01N 30°04' W 093°22'1 2.8
2018-Jun-17 12:30N 30°04' W 093°24'1 1.4
2018-Jun-17 11:59N 30°04' W 093°25'1 1.4
2018-Jun-17 11:30N 30°04' W 093°26'0 0.0
2018-Jun-17 11:01N 30°04' W 093°26'0 0.0
2018-Jun-17 10:30N 30°04' W 093°26'0 0.0
2018-Jun-17 09:59N 30°04' W 093°26'0 0.0
2018-Jun-17 09:31N 30°04' W 093°26'0 0.0
2018-Jun-17 09:00N 30°04' W 093°26'0 0.0
2018-Jun-17 08:30N 30°04' W 093°26'0 0.1
2018-Jun-17 08:00N 30°04' W 093°26'0 0.1
2018-Jun-17 07:31N 30°04' W 093°26'0 0.1
2018-Jun-17 07:00N 30°04' W 093°26'0 0.1
2018-Jun-17 06:30N 30°04' W 093°26'0 0.2
2018-Jun-17 06:00N 30°04' W 093°26'0 0.1
2018-Jun-17 05:31N 30°04' W 093°26'0 0.1
2018-Jun-17 05:00N 30°04' W 093°26'0 0.0
2018-Jun-17 04:31N 30°04' W 093°26'0 0.0
2018-Jun-17 04:01N 30°04' W 093°26'0 0.0
2018-Jun-17 03:31N 30°04' W 093°26'0 0.5
2018-Jun-17 03:00N 30°04' W 093°26'2 4.2
2018-Jun-17 02:30N 30°04' W 093°29'3 5.5
2018-Jun-17 02:01N 30°04' W 093°32'3 5.5
2018-Jun-17 01:30N 30°04' W 093°35'3 6.1
2018-Jun-17 00:59N 30°04' W 093°39'3 6.3
2018-Jun-17 00:30N 30°03' W 093°42'3 6.5
2018-Jun-17 00:01N 30°01' W 093°45'4 7.8
2018-Jun-16 23:30N 29°59' W 093°49'2 5.0
2018-Jun-16 23:01N 29°58' W 093°52'2 4.2
2018-Jun-16 22:30N 29°59' W 093°54'0 0.8
2018-Jun-16 22:01N 29°59' W 093°53'1 1.1
2018-Jun-16 21:30N 29°59' W 093°53'0 0.0
2018-Jun-16 20:59N 29°59' W 093°53'0 0.0
2018-Jun-16 20:29N 29°59' W 093°53'0 0.0
2018-Jun-16 19:59N 29°59' W 093°53'0 0.0
2018-Jun-16 19:29N 29°59' W 093°53'0 0.0
2018-Jun-16 18:59N 29°59' W 093°53'0 0.0
2018-Jun-16 18:29N 29°59' W 093°53'0 0.0
2018-Jun-16 17:59N 29°59' W 093°53'0 0.0
2018-Jun-16 17:29N 29°59' W 093°53'0 0.0
2018-Jun-16 16:59N 29°59' W 093°53'0 0.0
2018-Jun-16 16:29N 29°59' W 093°53'0 0.0
2018-Jun-16 15:59N 29°59' W 093°53'0 0.0
2018-Jun-16 15:29N 29°59' W 093°53'0 0.0
2018-Jun-16 14:59N 29°59' W 093°53'0 0.0
2018-Jun-16 14:29N 29°59' W 093°53'0 0.0
2018-Jun-16 13:56N 29°59' W 093°53'0 0.0
2018-Jun-16 13:29N 29°59' W 093°53'0 0.0
2018-Jun-16 12:59N 29°59' W 093°53'0 0.0
2018-Jun-16 12:29N 29°59' W 093°53'0 0.0
2018-Jun-16 11:59N 29°59' W 093°53'0 0.0
2018-Jun-16 11:29N 29°59' W 093°53'0 0.0
2018-Jun-16 10:59N 29°59' W 093°53'0 0.0
2018-Jun-16 10:29N 29°59' W 093°53'0 0.0
2018-Jun-16 09:59N 29°59' W 093°53'0 0.0
2018-Jun-16 09:29N 29°59' W 093°53'0 0.0
2018-Jun-16 08:59N 29°59' W 093°53'0 0.0
2018-Jun-16 08:29N 29°59' W 093°53'0 0.0
2018-Jun-16 07:59N 29°59' W 093°53'0 0.0
2018-Jun-16 07:29N 29°59' W 093°53'0 0.0
2018-Jun-16 06:59N 29°59' W 093°53'0 0.0
2018-Jun-16 06:29N 29°59' W 093°53'0 0.0
2018-Jun-16 05:59N 29°59' W 093°53'0 0.0
2018-Jun-16 05:29N 29°59' W 093°53'0 0.0
2018-Jun-16 04:59N 29°59' W 093°53'0 0.0
2018-Jun-16 04:29N 29°59' W 093°53'0 0.0
2018-Jun-16 03:59N 29°59' W 093°53'0 0.0
2018-Jun-16 03:29N 29°59' W 093°53'0 0.0
2018-Jun-16 02:59N 29°59' W 093°53'0 0.0
2018-Jun-16 02:29N 29°59' W 093°53'0 0.0
2018-Jun-16 01:59N 29°59' W 093°53'0 0.0
2018-Jun-16 01:29N 29°59' W 093°53'0 0.0
2018-Jun-16 01:00N 29°59' W 093°53'0 0.0
2018-Jun-16 00:30N 29°59' W 093°53'0 0.0
2018-Jun-16 00:00N 29°59' W 093°53'0 0.0
2018-Jun-15 23:31N 29°59' W 093°53'0 0.0
2018-Jun-15 23:00N 29°59' W 093°53'0 0.0
2018-Jun-15 22:31N 29°59' W 093°53'0 0.0
2018-Jun-15 22:00N 29°59' W 093°53'0 0.0
2018-Jun-15 21:31N 29°59' W 093°53'0 0.0
2018-Jun-15 21:00N 29°59' W 093°53'0 0.0
2018-Jun-15 20:30N 29°59' W 093°53'0 0.0
2018-Jun-15 20:01N 29°59' W 093°53'0 0.0
2018-Jun-15 19:31N 29°59' W 093°53'0 0.0
2018-Jun-15 19:00N 29°59' W 093°53'1 2.6
2018-Jun-15 18:30N 29°59' W 093°54'1 1.2
2018-Jun-15 18:01N 29°60' W 093°55'0 0.0
2018-Jun-15 17:30N 29°60' W 093°55'0 0.0
2018-Jun-15 17:00N 29°60' W 093°55'0 0.0
2018-Jun-15 16:30N 29°60' W 093°55'0 0.1
2018-Jun-15 16:01N 29°60' W 093°55'3 5.8
2018-Jun-15 15:30N 29°58' W 093°52'0 0.8
2018-Jun-15 15:01N 29°58' W 093°52'0 0.0
2018-Jun-15 14:30N 29°58' W 093°52'0 0.0
2018-Jun-15 14:00N 29°58' W 093°52'2 4.1
2018-Jun-15 13:30N 29°59' W 093°54'1 1.9
2018-Jun-15 13:00N 29°60' W 093°55'0 0.0
2018-Jun-15 12:30N 29°60' W 093°55'0 0.0
2018-Jun-15 12:00N 29°60' W 093°55'0 0.0
2018-Jun-15 11:30N 29°60' W 093°55'0 0.0
2018-Jun-15 11:00N 29°60' W 093°55'0 0.0
2018-Jun-15 10:30N 29°60' W 093°55'0 0.0
2018-Jun-15 10:00N 29°60' W 093°55'0 0.0
2018-Jun-15 09:31N 29°60' W 093°55'0 0.0
2018-Jun-15 09:00N 29°60' W 093°55'0 0.0
2018-Jun-15 08:30N 29°60' W 093°55'0 0.0
2018-Jun-15 08:01N 29°60' W 093°55'0 0.0
2018-Jun-15 07:31N 29°60' W 093°55'0 0.0
2018-Jun-15 07:00N 29°60' W 093°55'0 0.0
2018-Jun-15 06:30N 29°60' W 093°55'0 0.0
2018-Jun-15 06:00N 29°60' W 093°55'0 0.0
2018-Jun-15 05:30N 29°60' W 093°55'0 0.0
2018-Jun-15 05:00N 29°60' W 093°55'0 0.0
2018-Jun-15 04:30N 29°60' W 093°55'0 0.0
2018-Jun-15 04:00N 29°60' W 093°55'0 0.0
2018-Jun-15 03:30N 29°60' W 093°55'0 0.0
2018-Jun-15 03:00N 29°60' W 093°55'0 0.0
2018-Jun-15 02:30N 29°60' W 093°55'0 0.0
2018-Jun-15 02:01N 29°60' W 093°55'0 0.0
2018-Jun-15 01:30N 29°60' W 093°55'0 0.0
2018-Jun-15 01:00N 29°60' W 093°55'0 0.0
2018-Jun-15 00:30N 29°60' W 093°55'0 0.0
2018-Jun-15 00:01N 29°60' W 093°55'0 0.0
2018-Jun-14 23:30N 29°60' W 093°55'0 0.0
2018-Jun-14 23:00N 29°60' W 093°55'0 0.0
2018-Jun-14 22:31N 29°60' W 093°55'0 0.0
2018-Jun-14 22:01N 29°60' W 093°55'0 0.0
2018-Jun-14 21:31N 29°60' W 093°55'0 0.0
2018-Jun-14 21:00N 29°60' W 093°55'0 0.0
2018-Jun-14 20:30N 29°60' W 093°55'0 0.0
2018-Jun-14 20:00N 29°60' W 093°55'0 0.0
2018-Jun-14 19:30N 29°60' W 093°55'0 0.0
2018-Jun-14 19:00N 29°60' W 093°55'0 0.0
2018-Jun-14 18:30N 29°60' W 093°55'0 0.0
2018-Jun-14 18:00N 29°60' W 093°55'0 0.0
2018-Jun-14 17:30N 29°60' W 093°55'0 0.0
2018-Jun-14 17:00N 29°60' W 093°55'0 0.0
2018-Jun-14 16:31N 29°60' W 093°55'0 0.0
2018-Jun-14 15:59N 29°60' W 093°55'0 0.0
2018-Jun-14 15:30N 29°60' W 093°55'0 0.0
2018-Jun-14 15:00N 29°60' W 093°55'0 0.0
2018-Jun-14 14:30N 29°60' W 093°55'0 0.0
2018-Jun-14 14:00N 29°60' W 093°55'0 0.0
2018-Jun-14 13:30N 29°60' W 093°55'0 0.0
2018-Jun-14 13:00N 29°60' W 093°55'0 0.0
2018-Jun-14 12:31N 29°60' W 093°55'0 0.0
2018-Jun-14 12:01N 29°60' W 093°55'0 0.0
2018-Jun-14 11:30N 29°60' W 093°55'0 0.0
2018-Jun-14 10:59N 29°60' W 093°55'0 0.0
2018-Jun-14 10:30N 29°60' W 093°55'0 0.0
2018-Jun-14 10:00N 29°60' W 093°55'0 0.0
2018-Jun-14 09:31N 29°60' W 093°55'0 0.0
2018-Jun-14 09:01N 29°60' W 093°55'0 0.0
2018-Jun-14 08:30N 29°60' W 093°55'0 0.0
2018-Jun-14 08:00N 29°60' W 093°55'0 0.0
2018-Jun-14 07:30N 29°60' W 093°55'0 0.0
2018-Jun-14 07:00N 29°60' W 093°55'0 0.0
2018-Jun-14 06:29N 29°60' W 093°55'0 0.0
2018-Jun-14 06:00N 29°60' W 093°55'0 0.0
2018-Jun-14 05:30N 29°60' W 093°55'0 0.0
2018-Jun-14 05:00N 29°60' W 093°55'0 0.0
2018-Jun-14 04:31N 29°60' W 093°55'0 0.0
2018-Jun-14 04:00N 29°60' W 093°55'0 0.0
2018-Jun-14 03:31N 29°60' W 093°55'0 0.0
2018-Jun-14 03:00N 29°60' W 093°55'0 0.0
2018-Jun-14 02:30N 29°60' W 093°55'0 0.0
2018-Jun-14 02:01N 29°60' W 093°55'0 0.0
2018-Jun-14 01:30N 29°60' W 093°55'0 0.0
2018-Jun-14 01:00N 29°60' W 093°55'0 0.0
2018-Jun-14 00:31N 29°60' W 093°55'0 0.0
2018-Jun-14 00:00N 29°60' W 093°55'0 0.0
2018-Jun-13 23:30N 29°60' W 093°55'0 0.0
2018-Jun-13 23:01N 29°60' W 093°55'0 0.0
2018-Jun-13 22:30N 29°60' W 093°55'0 0.0
2018-Jun-13 22:00N 29°60' W 093°55'0 0.0
2018-Jun-13 21:30N 29°60' W 093°55'0 0.0
2018-Jun-13 21:00N 29°60' W 093°55'0 0.0
2018-Jun-13 20:30N 29°60' W 093°55'0 0.0
2018-Jun-13 20:00N 29°60' W 093°55'0 0.0
2018-Jun-13 19:30N 29°60' W 093°55'0 0.0
2018-Jun-13 19:01N 29°60' W 093°55'0 0.0
2018-Jun-13 18:30N 29°60' W 093°55'0 0.0
2018-Jun-13 18:00N 29°60' W 093°55'1 2.2
2018-Jun-13 17:30N 29°59' W 093°54'2 3.9
2018-Jun-13 17:00N 29°58' W 093°52'1 1.1
2018-Jun-13 16:30N 29°59' W 093°52'3 5.4
2018-Jun-13 16:01N 29°60' W 093°55'0 0.0
2018-Jun-13 15:31N 29°60' W 093°55'0 0.0
2018-Jun-13 15:00N 29°60' W 093°55'0 0.0
2018-Jun-13 14:31N 29°60' W 093°55'0 0.0
2018-Jun-13 14:00N 29°60' W 093°55'0 0.0
2018-Jun-13 13:30N 29°60' W 093°55'0 0.0
2018-Jun-13 13:00N 29°60' W 093°55'0 0.0
2018-Jun-13 12:30N 29°60' W 093°55'0 0.0
2018-Jun-13 12:01N 29°60' W 093°55'0 0.0
2018-Jun-13 11:30N 29°60' W 093°55'0 0.0
2018-Jun-13 11:00N 29°60' W 093°55'0 0.0
2018-Jun-13 10:30N 29°60' W 093°55'0 0.0
2018-Jun-13 10:00N 29°60' W 093°55'0 0.0
2018-Jun-13 09:30N 29°60' W 093°55'0 0.0
2018-Jun-13 09:01N 29°60' W 093°55'0 0.0
2018-Jun-13 08:30N 29°60' W 093°55'0 0.0
2018-Jun-13 08:00N 29°60' W 093°55'0 0.0
2018-Jun-13 07:31N 29°60' W 093°55'0 0.0
2018-Jun-13 07:00N 29°60' W 093°55'0 0.0
2018-Jun-13 06:30N 29°60' W 093°55'0 0.0
2018-Jun-13 06:01N 29°60' W 093°55'0 0.0
2018-Jun-13 05:30N 29°60' W 093°55'0 0.0
2018-Jun-13 05:00N 29°60' W 093°55'0 0.0
2018-Jun-13 04:30N 29°60' W 093°55'0 0.0
2018-Jun-13 04:00N 29°60' W 093°55'0 0.0
2018-Jun-13 03:30N 29°60' W 093°55'0 0.0
2018-Jun-13 03:00N 29°60' W 093°55'0 0.0
2018-Jun-13 02:31N 29°60' W 093°55'0 0.0
2018-Jun-13 02:00N 29°60' W 093°55'0 0.0
2018-Jun-13 01:30N 29°60' W 093°55'0 0.0
2018-Jun-13 01:00N 29°60' W 093°55'0 0.0
2018-Jun-13 00:30N 29°60' W 093°55'0 0.0
2018-Jun-13 00:00N 29°60' W 093°55'0 0.0
2018-Jun-12 23:31N 29°60' W 093°55'1 2.1
2018-Jun-12 23:00N 29°59' W 093°54'2 4.9
2018-Jun-12 22:30N 29°58' W 093°51'0 0.0
2018-Jun-12 22:00N 29°58' W 093°51'0 0.0
2018-Jun-12 21:30N 29°58' W 093°51'0 0.0
2018-Jun-12 21:00N 29°58' W 093°51'0 0.0
2018-Jun-12 20:28N 29°58' W 093°51'0 0.0
2018-Jun-12 19:58N 29°58' W 093°51'0 0.0
2018-Jun-12 19:30N 29°58' W 093°51'0 0.0
2018-Jun-12 19:00N 29°58' W 093°51'0 0.0
2018-Jun-12 18:30N 29°58' W 093°51'1 1.4
2018-Jun-12 18:00N 29°59' W 093°52'3 5.7
2018-Jun-12 17:31N 29°60' W 093°55'0 0.0
2018-Jun-12 17:01N 29°60' W 093°55'2 3.6
2018-Jun-12 16:30N 29°59' W 093°53'3 6.3
2018-Jun-12 16:00N 29°56' W 093°53'4 8.8
2018-Jun-12 15:31N 29°52' W 093°56'4 7.2
2018-Jun-12 15:00N 29°49' W 093°58'3 6.5
2018-Jun-12 14:31N 29°47' W 094°01'3 6.0
2018-Jun-12 14:00N 29°45' W 094°04'3 6.7
2018-Jun-12 13:30N 29°43' W 094°07'3 6.7
2018-Jun-12 13:00N 29°41' W 094°10'3 6.2
2018-Jun-12 12:30N 29°40' W 094°13'3 5.9
2018-Jun-12 12:00N 29°39' W 094°16'3 6.2
2018-Jun-12 11:30N 29°38' W 094°19'4 6.5
2018-Jun-12 10:56N 29°36' W 094°23'2 4.5
2018-Jun-12 10:27N 29°34' W 094°25'3 6.2
2018-Jun-12 09:59N 29°33' W 094°28'2 3.3
2018-Jun-12 09:30N 29°32' W 094°29'22 4.1
2018-Jun-12 04:01N 29°33' W 094°55'0 9.4
2018-Jun-12 04:01N 29°33' W 094°55'9 8.8
2018-Jun-12 02:58N 29°41' W 094°59'  
Track history (hours):
 
Tides and Currents Weather Stations Pressure Air Temp Water Temp Dewpoint Dewpoint Depression Visibility Wind Speed Wind Dir Waves Ship Positions

Three Rivers

Owner: Higman Barge Lines, Inc., Orange, TX. More information available from US FCC via Universal Licensing System and Coast Guard Vessel Documentation Center.

Last reported at 2018-Jun-20 03:15 UTC. Time now 2018-Jun-24 18:49 UTC.
Position N 29°33' W 090°24'.

Length 206 m; draft 2.7 m.

Type: . MMSI: 367595460.

Date/timePositionNaut miles runAvg speedWind from/ knotsBaromVisibWave heightAir tempDewpointWater temp
2018-Jun-20 03:15N 29°33' W 090°24'3 5.5
2018-Jun-20 02:44N 29°33' W 090°27'1 5.8
2018-Jun-20 02:30N 29°34' W 090°29'3 5.8
2018-Jun-20 02:00N 29°34' W 090°32'3 5.4
2018-Jun-20 01:31N 29°34' W 090°35'2 3.7
2018-Jun-20 01:00N 29°35' W 090°37'3 5.3
2018-Jun-20 00:30N 29°36' W 090°40'2 4.6
2018-Jun-20 00:01N 29°37' W 090°42'2 3.8
2018-Jun-19 23:30N 29°35' W 090°43'1 3.0
2018-Jun-19 23:00N 29°34' W 090°44'2 3.8
2018-Jun-19 22:30N 29°33' W 090°46'0 0.1
2018-Jun-19 22:00N 29°33' W 090°45'0 0.3
2018-Jun-19 21:30N 29°33' W 090°46'2 4.1
2018-Jun-19 21:00N 29°32' W 090°48'3 6.3
2018-Jun-19 20:29N 29°32' W 090°52'3 6.2
2018-Jun-19 20:00N 29°33' W 090°55'57 4.0
2018-Jun-19 05:31N 29°50' W 091°58'0 5.8
2018-Jun-19 05:29N 29°50' W 091°58'3 6.0
2018-Jun-19 05:00N 29°49' W 092°01'3 5.6
2018-Jun-19 04:30N 29°48' W 092°04'3 5.3
2018-Jun-19 04:00N 29°47' W 092°07'2 4.3
2018-Jun-19 03:30N 29°47' W 092°09'1 2.6
2018-Jun-19 03:00N 29°47' W 092°11'1 2.6
2018-Jun-19 02:30N 29°47' W 092°12'0 0.7
2018-Jun-19 02:00N 29°47' W 092°13'1 2.4
2018-Jun-19 01:30N 29°48' W 092°14'0 0.7
2018-Jun-19 01:00N 29°48' W 092°14'1 1.2
2018-Jun-19 00:31N 29°48' W 092°15'0 0.0
2018-Jun-19 00:01N 29°48' W 092°15'0 0.0
2018-Jun-18 23:30N 29°48' W 092°15'0 0.0
2018-Jun-18 23:00N 29°48' W 092°15'0 0.0
2018-Jun-18 22:30N 29°48' W 092°15'1 1.3
2018-Jun-18 22:00N 29°48' W 092°16'0 0.0
2018-Jun-18 21:30N 29°48' W 092°16'0 0.0
2018-Jun-18 21:00N 29°48' W 092°16'1 2.6
2018-Jun-18 20:30N 29°49' W 092°17'1 1.3
2018-Jun-18 20:00N 29°49' W 092°18'0 0.0
2018-Jun-18 19:30N 29°49' W 092°18'0 0.0
2018-Jun-18 19:01N 29°49' W 092°18'0 0.0
2018-Jun-18 18:30N 29°49' W 092°18'0 0.0
2018-Jun-18 18:00N 29°49' W 092°18'0 0.0
2018-Jun-18 17:30N 29°49' W 092°18'0 0.0
2018-Jun-18 17:01N 29°49' W 092°18'0 0.0
2018-Jun-18 16:29N 29°49' W 092°18'0 0.1
2018-Jun-18 16:00N 29°50' W 092°18'0 0.3
2018-Jun-18 15:30N 29°50' W 092°18'0 0.1
2018-Jun-18 15:00N 29°50' W 092°18'0 0.5
2018-Jun-18 14:30N 29°50' W 092°18'0 0.5
2018-Jun-18 14:01N 29°50' W 092°18'0 0.0
2018-Jun-18 13:30N 29°50' W 092°18'1 1.5
2018-Jun-18 12:59N 29°50' W 092°19'2 3.7
2018-Jun-18 12:30N 29°51' W 092°21'2 2.8
2018-Jun-18 11:53N 29°52' W 092°22'2 3.4
2018-Jun-18 11:23N 29°53' W 092°24'1 1.1
2018-Jun-18 10:21N 29°53' W 092°25'1 2.6
2018-Jun-18 09:58N 29°53' W 092°26'32 4.9
2018-Jun-18 03:24N 29°56' W 093°03'1 3.8
2018-Jun-18 03:00N 29°56' W 093°05'2 4.6
2018-Jun-18 02:30N 29°56' W 093°08'2 4.4
2018-Jun-18 02:00N 29°57' W 093°10'2 4.8
2018-Jun-18 01:30N 29°59' W 093°12'2 3.2
2018-Jun-18 01:01N 29°60' W 093°13'2 3.1
2018-Jun-18 00:30N 30°01' W 093°14'1 2.7
2018-Jun-18 00:00N 30°02' W 093°15'1 2.6
2018-Jun-17 23:30N 30°03' W 093°16'1 2.9
2018-Jun-17 23:00N 30°04' W 093°16'1 2.6
2018-Jun-17 22:31N 30°05' W 093°18'1 1.0
2018-Jun-17 22:00N 30°06' W 093°18'1 1.8
2018-Jun-17 21:30N 30°06' W 093°19'0 0.1
2018-Jun-17 21:00N 30°06' W 093°19'0 0.0
2018-Jun-17 20:31N 30°06' W 093°19'0 0.1
2018-Jun-17 20:01N 30°06' W 093°19'0 0.0
2018-Jun-17 19:30N 30°06' W 093°19'0 0.0
2018-Jun-17 19:01N 30°06' W 093°19'0 0.0
2018-Jun-17 18:30N 30°06' W 093°19'0 0.1
2018-Jun-17 18:00N 30°06' W 093°19'0 0.0
2018-Jun-17 17:30N 30°06' W 093°19'0 0.0
2018-Jun-17 17:00N 30°06' W 093°19'0 0.0
2018-Jun-17 16:30N 30°06' W 093°19'0 0.0
2018-Jun-17 16:00N 30°06' W 093°19'0 0.1
2018-Jun-17 15:30N 30°06' W 093°19'0 0.1
2018-Jun-17 15:00N 30°06' W 093°19'1 2.6
2018-Jun-17 14:30N 30°05' W 093°20'1 2.2
2018-Jun-17 14:01N 30°04' W 093°21'1 2.4
2018-Jun-17 13:30N 30°04' W 093°22'0 0.6
2018-Jun-17 13:01N 30°04' W 093°22'1 2.8
2018-Jun-17 12:30N 30°04' W 093°24'1 1.4
2018-Jun-17 11:59N 30°04' W 093°25'1 1.4
2018-Jun-17 11:30N 30°04' W 093°26'0 0.0
2018-Jun-17 11:01N 30°04' W 093°26'0 0.0
2018-Jun-17 10:30N 30°04' W 093°26'0 0.0
2018-Jun-17 09:59N 30°04' W 093°26'0 0.0
2018-Jun-17 09:31N 30°04' W 093°26'0 0.0
2018-Jun-17 09:00N 30°04' W 093°26'0 0.0
2018-Jun-17 08:30N 30°04' W 093°26'0 0.1
2018-Jun-17 08:00N 30°04' W 093°26'0 0.1
2018-Jun-17 07:31N 30°04' W 093°26'0 0.1
2018-Jun-17 07:00N 30°04' W 093°26'0 0.1
2018-Jun-17 06:30N 30°04' W 093°26'0 0.2
2018-Jun-17 06:00N 30°04' W 093°26'0 0.1
2018-Jun-17 05:31N 30°04' W 093°26'0 0.1
2018-Jun-17 05:00N 30°04' W 093°26'0 0.0
2018-Jun-17 04:31N 30°04' W 093°26'0 0.0
2018-Jun-17 04:01N 30°04' W 093°26'0 0.0
2018-Jun-17 03:31N 30°04' W 093°26'0 0.5
2018-Jun-17 03:00N 30°04' W 093°26'2 4.2
2018-Jun-17 02:30N 30°04' W 093°29'3 5.5
2018-Jun-17 02:01N 30°04' W 093°32'3 5.5
2018-Jun-17 01:30N 30°04' W 093°35'3 6.1
2018-Jun-17 00:59N 30°04' W 093°39'3 6.3
2018-Jun-17 00:30N 30°03' W 093°42'3 6.5
2018-Jun-17 00:01N 30°01' W 093°45'4 7.8
2018-Jun-16 23:30N 29°59' W 093°49'2 5.0
2018-Jun-16 23:01N 29°58' W 093°52'2 4.2
2018-Jun-16 22:30N 29°59' W 093°54'0 0.8
2018-Jun-16 22:01N 29°59' W 093°53'1 1.1
2018-Jun-16 21:30N 29°59' W 093°53'0 0.0
2018-Jun-16 20:59N 29°59' W 093°53'0 0.0
2018-Jun-16 20:29N 29°59' W 093°53'0 0.0
2018-Jun-16 19:59N 29°59' W 093°53'0 0.0
2018-Jun-16 19:29N 29°59' W 093°53'0 0.0
2018-Jun-16 18:59N 29°59' W 093°53'0 0.0
2018-Jun-16 18:29N 29°59' W 093°53'0 0.0
2018-Jun-16 17:59N 29°59' W 093°53'0 0.0
2018-Jun-16 17:29N 29°59' W 093°53'0 0.0
2018-Jun-16 16:59N 29°59' W 093°53'0 0.0
2018-Jun-16 16:29N 29°59' W 093°53'0 0.0
2018-Jun-16 15:59N 29°59' W 093°53'0 0.0
2018-Jun-16 15:29N 29°59' W 093°53'0 0.0
2018-Jun-16 14:59N 29°59' W 093°53'0 0.0
2018-Jun-16 14:29N 29°59' W 093°53'0 0.0
2018-Jun-16 13:56N 29°59' W 093°53'0 0.0
2018-Jun-16 13:29N 29°59' W 093°53'0 0.0
2018-Jun-16 12:59N 29°59' W 093°53'0 0.0
2018-Jun-16 12:29N 29°59' W 093°53'0 0.0
2018-Jun-16 11:59N 29°59' W 093°53'0 0.0
2018-Jun-16 11:29N 29°59' W 093°53'0 0.0
2018-Jun-16 10:59N 29°59' W 093°53'0 0.0
2018-Jun-16 10:29N 29°59' W 093°53'0 0.0
2018-Jun-16 09:59N 29°59' W 093°53'0 0.0
2018-Jun-16 09:29N 29°59' W 093°53'0 0.0
2018-Jun-16 08:59N 29°59' W 093°53'0 0.0
2018-Jun-16 08:29N 29°59' W 093°53'0 0.0
2018-Jun-16 07:59N 29°59' W 093°53'0 0.0
2018-Jun-16 07:29N 29°59' W 093°53'0 0.0
2018-Jun-16 06:59N 29°59' W 093°53'0 0.0
2018-Jun-16 06:29N 29°59' W 093°53'0 0.0
2018-Jun-16 05:59N 29°59' W 093°53'0 0.0
2018-Jun-16 05:29N 29°59' W 093°53'0 0.0
2018-Jun-16 04:59N 29°59' W 093°53'0 0.0
2018-Jun-16 04:29N 29°59' W 093°53'0 0.0
2018-Jun-16 03:59N 29°59' W 093°53'0 0.0
2018-Jun-16 03:29N 29°59' W 093°53'0 0.0
2018-Jun-16 02:59N 29°59' W 093°53'0 0.0
2018-Jun-16 02:29N 29°59' W 093°53'0 0.0
2018-Jun-16 01:59N 29°59' W 093°53'0 0.0
2018-Jun-16 01:29N 29°59' W 093°53'0 0.0
2018-Jun-16 01:00N 29°59' W 093°53'0 0.0
2018-Jun-16 00:30N 29°59' W 093°53'0 0.0
2018-Jun-16 00:00N 29°59' W 093°53'0 0.0
2018-Jun-15 23:31N 29°59' W 093°53'0 0.0
2018-Jun-15 23:00N 29°59' W 093°53'0 0.0
2018-Jun-15 22:31N 29°59' W 093°53'0 0.0
2018-Jun-15 22:00N 29°59' W 093°53'0 0.0
2018-Jun-15 21:31N 29°59' W 093°53'0 0.0
2018-Jun-15 21:00N 29°59' W 093°53'0 0.0
2018-Jun-15 20:30N 29°59' W 093°53'0 0.0
2018-Jun-15 20:01N 29°59' W 093°53'0 0.0
2018-Jun-15 19:31N 29°59' W 093°53'0 0.0
2018-Jun-15 19:00N 29°59' W 093°53'1 2.6
2018-Jun-15 18:30N 29°59' W 093°54'1 1.2
2018-Jun-15 18:01N 29°60' W 093°55'0 0.0
2018-Jun-15 17:30N 29°60' W 093°55'0 0.0
2018-Jun-15 17:00N 29°60' W 093°55'0 0.0
2018-Jun-15 16:30N 29°60' W 093°55'0 0.1
2018-Jun-15 16:01N 29°60' W 093°55'3 5.8
2018-Jun-15 15:30N 29°58' W 093°52'0 0.8
2018-Jun-15 15:01N 29°58' W 093°52'0 0.0
2018-Jun-15 14:30N 29°58' W 093°52'0 0.0
2018-Jun-15 14:00N 29°58' W 093°52'2 4.1
2018-Jun-15 13:30N 29°59' W 093°54'1 1.9
2018-Jun-15 13:00N 29°60' W 093°55'0 0.0
2018-Jun-15 12:30N 29°60' W 093°55'0 0.0
2018-Jun-15 12:00N 29°60' W 093°55'0 0.0
2018-Jun-15 11:30N 29°60' W 093°55'0 0.0
2018-Jun-15 11:00N 29°60' W 093°55'0 0.0
2018-Jun-15 10:30N 29°60' W 093°55'0 0.0
2018-Jun-15 10:00N 29°60' W 093°55'0 0.0
2018-Jun-15 09:31N 29°60' W 093°55'0 0.0
2018-Jun-15 09:00N 29°60' W 093°55'0 0.0
2018-Jun-15 08:30N 29°60' W 093°55'0 0.0
2018-Jun-15 08:01N 29°60' W 093°55'0 0.0
2018-Jun-15 07:31N 29°60' W 093°55'0 0.0
2018-Jun-15 07:00N 29°60' W 093°55'0 0.0
2018-Jun-15 06:30N 29°60' W 093°55'0 0.0
2018-Jun-15 06:00N 29°60' W 093°55'0 0.0
2018-Jun-15 05:30N 29°60' W 093°55'0 0.0
2018-Jun-15 05:00N 29°60' W 093°55'0 0.0
2018-Jun-15 04:30N 29°60' W 093°55'0 0.0
2018-Jun-15 04:00N 29°60' W 093°55'0 0.0
2018-Jun-15 03:30N 29°60' W 093°55'0 0.0
2018-Jun-15 03:00N 29°60' W 093°55'0 0.0
2018-Jun-15 02:30N 29°60' W 093°55'0 0.0
2018-Jun-15 02:01N 29°60' W 093°55'0 0.0
2018-Jun-15 01:30N 29°60' W 093°55'0 0.0
2018-Jun-15 01:00N 29°60' W 093°55'0 0.0
2018-Jun-15 00:30N 29°60' W 093°55'0 0.0
2018-Jun-15 00:01N 29°60' W 093°55'0 0.0
2018-Jun-14 23:30N 29°60' W 093°55'0 0.0
2018-Jun-14 23:00N 29°60' W 093°55'0 0.0
2018-Jun-14 22:31N 29°60' W 093°55'0 0.0
2018-Jun-14 22:01N 29°60' W 093°55'0 0.0
2018-Jun-14 21:31N 29°60' W 093°55'0 0.0
2018-Jun-14 21:00N 29°60' W 093°55'0 0.0
2018-Jun-14 20:30N 29°60' W 093°55'0 0.0
2018-Jun-14 20:00N 29°60' W 093°55'0 0.0
2018-Jun-14 19:30N 29°60' W 093°55'0 0.0
2018-Jun-14 19:00N 29°60' W 093°55'0 0.0
2018-Jun-14 18:30N 29°60' W 093°55'0 0.0
2018-Jun-14 18:00N 29°60' W 093°55'0 0.0
2018-Jun-14 17:30N 29°60' W 093°55'0 0.0
2018-Jun-14 17:00N 29°60' W 093°55'0 0.0
2018-Jun-14 16:31N 29°60' W 093°55'0 0.0
2018-Jun-14 15:59N 29°60' W 093°55'0 0.0
2018-Jun-14 15:30N 29°60' W 093°55'0 0.0
2018-Jun-14 15:00N 29°60' W 093°55'0 0.0
2018-Jun-14 14:30N 29°60' W 093°55'0 0.0
2018-Jun-14 14:00N 29°60' W 093°55'0 0.0
2018-Jun-14 13:30N 29°60' W 093°55'0 0.0
2018-Jun-14 13:00N 29°60' W 093°55'0 0.0
2018-Jun-14 12:31N 29°60' W 093°55'0 0.0
2018-Jun-14 12:01N 29°60' W 093°55'0 0.0
2018-Jun-14 11:30N 29°60' W 093°55'0 0.0
2018-Jun-14 10:59N 29°60' W 093°55'0 0.0
2018-Jun-14 10:30N 29°60' W 093°55'0 0.0
2018-Jun-14 10:00N 29°60' W 093°55'0 0.0
2018-Jun-14 09:31N 29°60' W 093°55'0 0.0
2018-Jun-14 09:01N 29°60' W 093°55'0 0.0
2018-Jun-14 08:30N 29°60' W 093°55'0 0.0
2018-Jun-14 08:00N 29°60' W 093°55'0 0.0
2018-Jun-14 07:30N 29°60' W 093°55'0 0.0
2018-Jun-14 07:00N 29°60' W 093°55'0 0.0
2018-Jun-14 06:29N 29°60' W 093°55'0 0.0
2018-Jun-14 06:00N 29°60' W 093°55'0 0.0
2018-Jun-14 05:30N 29°60' W 093°55'0 0.0
2018-Jun-14 05:00N 29°60' W 093°55'0 0.0
2018-Jun-14 04:31N 29°60' W 093°55'0 0.0
2018-Jun-14 04:00N 29°60' W 093°55'0 0.0
2018-Jun-14 03:31N 29°60' W 093°55'0 0.0
2018-Jun-14 03:00N 29°60' W 093°55'0 0.0
2018-Jun-14 02:30N 29°60' W 093°55'0 0.0
2018-Jun-14 02:01N 29°60' W 093°55'0 0.0
2018-Jun-14 01:30N 29°60' W 093°55'0 0.0
2018-Jun-14 01:00N 29°60' W 093°55'0 0.0
2018-Jun-14 00:31N 29°60' W 093°55'0 0.0
2018-Jun-14 00:00N 29°60' W 093°55'0 0.0
2018-Jun-13 23:30N 29°60' W 093°55'0 0.0
2018-Jun-13 23:01N 29°60' W 093°55'0 0.0
2018-Jun-13 22:30N 29°60' W 093°55'0 0.0
2018-Jun-13 22:00N 29°60' W 093°55'0 0.0
2018-Jun-13 21:30N 29°60' W 093°55'0 0.0
2018-Jun-13 21:00N 29°60' W 093°55'0 0.0
2018-Jun-13 20:30N 29°60' W 093°55'0 0.0
2018-Jun-13 20:00N 29°60' W 093°55'0 0.0
2018-Jun-13 19:30N 29°60' W 093°55'0 0.0
2018-Jun-13 19:01N 29°60' W 093°55'0 0.0
2018-Jun-13 18:30N 29°60' W 093°55'0 0.0
2018-Jun-13 18:00N 29°60' W 093°55'1 2.2
2018-Jun-13 17:30N 29°59' W 093°54'2 3.9
2018-Jun-13 17:00N 29°58' W 093°52'1 1.1
2018-Jun-13 16:30N 29°59' W 093°52'3 5.4
2018-Jun-13 16:01N 29°60' W 093°55'0 0.0
2018-Jun-13 15:31N 29°60' W 093°55'0 0.0
2018-Jun-13 15:00N 29°60' W 093°55'0 0.0
2018-Jun-13 14:31N 29°60' W 093°55'0 0.0
2018-Jun-13 14:00N 29°60' W 093°55'0 0.0
2018-Jun-13 13:30N 29°60' W 093°55'0 0.0
2018-Jun-13 13:00N 29°60' W 093°55'0 0.0
2018-Jun-13 12:30N 29°60' W 093°55'0 0.0
2018-Jun-13 12:01N 29°60' W 093°55'0 0.0
2018-Jun-13 11:30N 29°60' W 093°55'0 0.0
2018-Jun-13 11:00N 29°60' W 093°55'0 0.0
2018-Jun-13 10:30N 29°60' W 093°55'0 0.0
2018-Jun-13 10:00N 29°60' W 093°55'0 0.0
2018-Jun-13 09:30N 29°60' W 093°55'0 0.0
2018-Jun-13 09:01N 29°60' W 093°55'0 0.0
2018-Jun-13 08:30N 29°60' W 093°55'0 0.0
2018-Jun-13 08:00N 29°60' W 093°55'0 0.0
2018-Jun-13 07:31N 29°60' W 093°55'0 0.0
2018-Jun-13 07:00N 29°60' W 093°55'0 0.0
2018-Jun-13 06:30N 29°60' W 093°55'0 0.0
2018-Jun-13 06:01N 29°60' W 093°55'0 0.0
2018-Jun-13 05:30N 29°60' W 093°55'0 0.0
2018-Jun-13 05:00N 29°60' W 093°55'0 0.0
2018-Jun-13 04:30N 29°60' W 093°55'0 0.0
2018-Jun-13 04:00N 29°60' W 093°55'0 0.0
2018-Jun-13 03:30N 29°60' W 093°55'0 0.0
2018-Jun-13 03:00N 29°60' W 093°55'0 0.0
2018-Jun-13 02:31N 29°60' W 093°55'0 0.0
2018-Jun-13 02:00N 29°60' W 093°55'0 0.0
2018-Jun-13 01:30N 29°60' W 093°55'0 0.0
2018-Jun-13 01:00N 29°60' W 093°55'0 0.0
2018-Jun-13 00:30N 29°60' W 093°55'0 0.0
2018-Jun-13 00:00N 29°60' W 093°55'0 0.0
2018-Jun-12 23:31N 29°60' W 093°55'1 2.1
2018-Jun-12 23:00N 29°59' W 093°54'2 4.9
2018-Jun-12 22:30N 29°58' W 093°51'0 0.0
2018-Jun-12 22:00N 29°58' W 093°51'0 0.0
2018-Jun-12 21:30N 29°58' W 093°51'0 0.0
2018-Jun-12 21:00N 29°58' W 093°51'0 0.0
2018-Jun-12 20:28N 29°58' W 093°51'0 0.0
2018-Jun-12 19:58N 29°58' W 093°51'0 0.0
2018-Jun-12 19:30N 29°58' W 093°51'0 0.0
2018-Jun-12 19:00N 29°58' W 093°51'0 0.0
2018-Jun-12 18:30N 29°58' W 093°51'1 1.4
2018-Jun-12 18:00N 29°59' W 093°52'3 5.7
2018-Jun-12 17:31N 29°60' W 093°55'0 0.0
2018-Jun-12 17:01N 29°60' W 093°55'2 3.6
2018-Jun-12 16:30N 29°59' W 093°53'3 6.3
2018-Jun-12 16:00N 29°56' W 093°53'4 8.8
2018-Jun-12 15:31N 29°52' W 093°56'4 7.2
2018-Jun-12 15:00N 29°49' W 093°58'3 6.5
2018-Jun-12 14:31N 29°47' W 094°01'3 6.0
2018-Jun-12 14:00N 29°45' W 094°04'3 6.7
2018-Jun-12 13:30N 29°43' W 094°07'3 6.7
2018-Jun-12 13:00N 29°41' W 094°10'3 6.2
2018-Jun-12 12:30N 29°40' W 094°13'3 5.9
2018-Jun-12 12:00N 29°39' W 094°16'3 6.2
2018-Jun-12 11:30N 29°38' W 094°19'4 6.5
2018-Jun-12 10:56N 29°36' W 094°23'2 4.5
2018-Jun-12 10:27N 29°34' W 094°25'3 6.2
2018-Jun-12 09:59N 29°33' W 094°28'2 3.3
2018-Jun-12 09:30N 29°32' W 094°29'22 4.1
2018-Jun-12 04:01N 29°33' W 094°55'0 9.4
2018-Jun-12 04:01N 29°33' W 094°55'9 8.8
2018-Jun-12 02:58N 29°41' W 094°59'  

Dump ship's entire track history